sensor_id;sensor_type;location;lat;lon;timestamp;temperature;humidity
4081;DHT22;2055;50.074;8.436;2023-02-24T00:00:12;8.10;99.90
4081;DHT22;2055;50.074;8.436;2023-02-24T00:02:58;8.10;99.90
4081;DHT22;2055;50.074;8.436;2023-02-24T00:05:32;8.10;99.90
4081;DHT22;2055;50.074;8.436;2023-02-24T00:07:57;8.30;99.90
4081;DHT22;2055;50.074;8.436;2023-02-24T00:10:23;8.00;99.90
4081;DHT22;2055;50.074;8.436;2023-02-24T00:12:48;8.10;99.90
4081;DHT22;2055;50.074;8.436;2023-02-24T00:15:14;8.00;99.90
4081;DHT22;2055;50.074;8.436;2023-02-24T00:17:41;8.00;99.90
4081;DHT22;2055;50.074;8.436;2023-02-24T00:20:10;8.00;99.90
4081;DHT22;2055;50.074;8.436;2023-02-24T00:22:37;8.00;99.90
4081;DHT22;2055;50.074;8.436;2023-02-24T00:25:03;8.00;99.90
4081;DHT22;2055;50.074;8.436;2023-02-24T00:27:29;8.00;99.90
4081;DHT22;2055;50.074;8.436;2023-02-24T00:29:54;8.00;99.90
4081;DHT22;2055;50.074;8.436;2023-02-24T00:32:20;7.90;99.90
4081;DHT22;2055;50.074;8.436;2023-02-24T00:34:47;7.90;99.90
4081;DHT22;2055;50.074;8.436;2023-02-24T00:37:12;7.90;99.90
4081;DHT22;2055;50.074;8.436;2023-02-24T00:39:39;7.90;99.90
4081;DHT22;2055;50.074;8.436;2023-02-24T00:42:06;7.80;99.90
4081;DHT22;2055;50.074;8.436;2023-02-24T00:44:40;7.80;99.90
4081;DHT22;2055;50.074;8.436;2023-02-24T00:47:08;7.80;99.90
4081;DHT22;2055;50.074;8.436;2023-02-24T00:49:37;7.80;99.90
4081;DHT22;2055;50.074;8.436;2023-02-24T00:52:11;7.80;99.90
4081;DHT22;2055;50.074;8.436;2023-02-24T00:54:41;7.80;99.90
4081;DHT22;2055;50.074;8.436;2023-02-24T00:57:07;7.80;99.90
4081;DHT22;2055;50.074;8.436;2023-02-24T00:59:33;7.80;99.90
4081;DHT22;2055;50.074;8.436;2023-02-24T01:01:59;7.70;99.90
4081;DHT22;2055;50.074;8.436;2023-02-24T01:04:24;7.70;99.90
4081;DHT22;2055;50.074;8.436;2023-02-24T01:06:54;7.70;99.90
4081;DHT22;2055;50.074;8.436;2023-02-24T01:09:26;7.70;99.90
4081;DHT22;2055;50.074;8.436;2023-02-24T01:11:53;7.70;99.90
4081;DHT22;2055;50.074;8.436;2023-02-24T01:14:37;7.70;99.90
4081;DHT22;2055;50.074;8.436;2023-02-24T01:17:05;7.70;99.90
4081;DHT22;2055;50.074;8.436;2023-02-24T01:19:32;7.80;99.90
4081;DHT22;2055;50.074;8.436;2023-02-24T01:22:01;7.70;99.90
4081;DHT22;2055;50.074;8.436;2023-02-24T01:24:29;7.70;99.90
4081;DHT22;2055;50.074;8.436;2023-02-24T01:26:55;7.70;99.90
4081;DHT22;2055;50.074;8.436;2023-02-24T01:29:21;7.70;99.90
4081;DHT22;2055;50.074;8.436;2023-02-24T01:31:48;7.70;99.90
4081;DHT22;2055;50.074;8.436;2023-02-24T01:34:14;7.70;99.90
4081;DHT22;2055;50.074;8.436;2023-02-24T01:36:41;7.70;99.90
4081;DHT22;2055;50.074;8.436;2023-02-24T01:39:13;7.70;99.90
4081;DHT22;2055;50.074;8.436;2023-02-24T01:41:41;7.50;99.90
4081;DHT22;2055;50.074;8.436;2023-02-24T01:46:44;7.70;99.90
4081;DHT22;2055;50.074;8.436;2023-02-24T01:51:56;7.70;99.90
4081;DHT22;2055;50.074;8.436;2023-02-24T01:54:27;7.70;99.90
4081;DHT22;2055;50.074;8.436;2023-02-24T01:56:55;7.70;99.90
4081;DHT22;2055;50.074;8.436;2023-02-24T01:59:23;7.60;99.90
4081;DHT22;2055;50.074;8.436;2023-02-24T02:01:52;7.60;99.90
4081;DHT22;2055;50.074;8.436;2023-02-24T02:04:23;7.60;99.90
4081;DHT22;2055;50.074;8.436;2023-02-24T02:10:12;7.60;99.90
4081;DHT22;2055;50.074;8.436;2023-02-24T02:16:21;7.60;99.90
4081;DHT22;2055;50.074;8.436;2023-02-24T02:19:02;7.60;99.90
4081;DHT22;2055;50.074;8.436;2023-02-24T02:36:01;7.60;99.90
4081;DHT22;2055;50.074;8.436;2023-02-24T02:38:59;7.60;99.90
4081;DHT22;2055;50.074;8.436;2023-02-24T02:41:40;7.60;99.90
4081;DHT22;2055;50.074;8.436;2023-02-24T02:44:21;7.60;99.90
4081;DHT22;2055;50.074;8.436;2023-02-24T02:49:40;7.50;99.90
4081;DHT22;2055;50.074;8.436;2023-02-24T02:52:40;7.90;99.90
4081;DHT22;2055;50.074;8.436;2023-02-24T02:55:24;7.50;99.90
4081;DHT22;2055;50.074;8.436;2023-02-24T02:57:53;7.40;99.90
4081;DHT22;2055;50.074;8.436;2023-02-24T03:00:24;7.40;99.90
4081;DHT22;2055;50.074;8.436;2023-02-24T03:02:56;7.40;99.90
4081;DHT22;2055;50.074;8.436;2023-02-24T03:05:30;7.40;99.90
4081;DHT22;2055;50.074;8.436;2023-02-24T03:08:01;7.40;99.90
4081;DHT22;2055;50.074;8.436;2023-02-24T03:10:29;7.40;99.90
4081;DHT22;2055;50.074;8.436;2023-02-24T03:13:01;7.40;99.90
4081;DHT22;2055;50.074;8.436;2023-02-24T03:15:29;7.40;99.90
4081;DHT22;2055;50.074;8.436;2023-02-24T03:18:01;7.50;99.90
4081;DHT22;2055;50.074;8.436;2023-02-24T03:20:53;7.50;99.90
4081;DHT22;2055;50.074;8.436;2023-02-24T03:23:24;7.50;99.90
4081;DHT22;2055;50.074;8.436;2023-02-24T03:28:31;7.50;99.90
4081;DHT22;2055;50.074;8.436;2023-02-24T03:31:15;7.50;99.90
4081;DHT22;2055;50.074;8.436;2023-02-24T03:33:49;7.50;99.90
4081;DHT22;2055;50.074;8.436;2023-02-24T03:36:17;7.40;99.90
4081;DHT22;2055;50.074;8.436;2023-02-24T03:38:42;7.40;99.90
4081;DHT22;2055;50.074;8.436;2023-02-24T03:41:09;7.40;99.90
4081;DHT22;2055;50.074;8.436;2023-02-24T03:43:42;7.40;99.90
4081;DHT22;2055;50.074;8.436;2023-02-24T03:46:09;7.40;99.90
4081;DHT22;2055;50.074;8.436;2023-02-24T03:48:44;7.40;99.90
4081;DHT22;2055;50.074;8.436;2023-02-24T03:51:17;7.40;99.90
4081;DHT22;2055;50.074;8.436;2023-02-24T03:59:47;7.40;99.90
4081;DHT22;2055;50.074;8.436;2023-02-24T04:02:21;7.40;99.90
4081;DHT22;2055;50.074;8.436;2023-02-24T04:05:07;7.40;99.90
4081;DHT22;2055;50.074;8.436;2023-02-24T04:07:52;7.40;99.90
4081;DHT22;2055;50.074;8.436;2023-02-24T04:10:31;7.80;99.90
4081;DHT22;2055;50.074;8.436;2023-02-24T04:13:08;7.30;99.90
4081;DHT22;2055;50.074;8.436;2023-02-24T04:15:36;7.30;99.90
4081;DHT22;2055;50.074;8.436;2023-02-24T04:18:21;7.30;99.90
4081;DHT22;2055;50.074;8.436;2023-02-24T04:20:49;7.30;99.90
4081;DHT22;2055;50.074;8.436;2023-02-24T04:23:19;7.30;99.90
4081;DHT22;2055;50.074;8.436;2023-02-24T04:25:50;7.30;99.90
4081;DHT22;2055;50.074;8.436;2023-02-24T04:28:16;7.30;99.90
4081;DHT22;2055;50.074;8.436;2023-02-24T04:30:50;7.30;99.90
4081;DHT22;2055;50.074;8.436;2023-02-24T04:33:17;7.20;99.90
4081;DHT22;2055;50.074;8.436;2023-02-24T04:35:48;7.20;99.90
4081;DHT22;2055;50.074;8.436;2023-02-24T04:38:15;7.20;99.90
4081;DHT22;2055;50.074;8.436;2023-02-24T04:40:41;7.20;99.90
4081;DHT22;2055;50.074;8.436;2023-02-24T04:43:07;7.20;99.90
4081;DHT22;2055;50.074;8.436;2023-02-24T04:45:33;7.20;99.90
4081;DHT22;2055;50.074;8.436;2023-02-24T04:48:00;7.20;99.90
4081;DHT22;2055;50.074;8.436;2023-02-24T04:50:30;7.20;99.90
4081;DHT22;2055;50.074;8.436;2023-02-24T04:52:57;7.10;99.90
4081;DHT22;2055;50.074;8.436;2023-02-24T04:55:26;7.10;99.90
4081;DHT22;2055;50.074;8.436;2023-02-24T04:57:58;7.10;99.90
4081;DHT22;2055;50.074;8.436;2023-02-24T05:00:25;7.10;99.90
4081;DHT22;2055;50.074;8.436;2023-02-24T05:02:53;7.10;99.90
4081;DHT22;2055;50.074;8.436;2023-02-24T05:05:22;7.10;99.90
4081;DHT22;2055;50.074;8.436;2023-02-24T05:07:53;7.10;99.90
4081;DHT22;2055;50.074;8.436;2023-02-24T05:10:19;7.10;99.90
4081;DHT22;2055;50.074;8.436;2023-02-24T05:12:44;7.10;99.90
4081;DHT22;2055;50.074;8.436;2023-02-24T05:15:10;7.10;99.90
4081;DHT22;2055;50.074;8.436;2023-02-24T05:17:39;7.10;99.90
4081;DHT22;2055;50.074;8.436;2023-02-24T05:20:06;7.10;99.90
4081;DHT22;2055;50.074;8.436;2023-02-24T05:22:51;7.10;99.90
4081;DHT22;2055;50.074;8.436;2023-02-24T05:25:17;7.10;99.90
4081;DHT22;2055;50.074;8.436;2023-02-24T05:27:43;7.10;99.90
4081;DHT22;2055;50.074;8.436;2023-02-24T05:30:09;7.10;99.90
4081;DHT22;2055;50.074;8.436;2023-02-24T05:32:35;7.10;99.90
4081;DHT22;2055;50.074;8.436;2023-02-24T05:35:01;7.10;99.90
4081;DHT22;2055;50.074;8.436;2023-02-24T05:37:27;7.10;99.90
4081;DHT22;2055;50.074;8.436;2023-02-24T05:39:56;7.10;99.90
4081;DHT22;2055;50.074;8.436;2023-02-24T05:42:24;7.10;99.90
4081;DHT22;2055;50.074;8.436;2023-02-24T05:44:52;7.10;99.90
4081;DHT22;2055;50.074;8.436;2023-02-24T05:47:18;7.10;99.90
4081;DHT22;2055;50.074;8.436;2023-02-24T05:49:44;7.10;99.90
4081;DHT22;2055;50.074;8.436;2023-02-24T05:52:12;7.10;99.90
4081;DHT22;2055;50.074;8.436;2023-02-24T05:54:40;7.10;99.90
4081;DHT22;2055;50.074;8.436;2023-02-24T05:57:08;7.10;99.90
4081;DHT22;2055;50.074;8.436;2023-02-24T05:59:36;7.10;99.90
4081;DHT22;2055;50.074;8.436;2023-02-24T06:02:06;7.10;99.90
4081;DHT22;2055;50.074;8.436;2023-02-24T06:04:37;7.10;99.90
4081;DHT22;2055;50.074;8.436;2023-02-24T06:07:27;7.10;99.90
4081;DHT22;2055;50.074;8.436;2023-02-24T06:09:57;7.10;99.90
4081;DHT22;2055;50.074;8.436;2023-02-24T06:12:31;7.10;99.90
4081;DHT22;2055;50.074;8.436;2023-02-24T06:14:58;7.10;99.90
4081;DHT22;2055;50.074;8.436;2023-02-24T06:17:24;7.10;99.90
4081;DHT22;2055;50.074;8.436;2023-02-24T06:19:51;7.10;99.90
4081;DHT22;2055;50.074;8.436;2023-02-24T06:22:19;7.10;99.90
4081;DHT22;2055;50.074;8.436;2023-02-24T06:24:46;7.10;99.90
4081;DHT22;2055;50.074;8.436;2023-02-24T06:27:14;7.10;99.90
4081;DHT22;2055;50.074;8.436;2023-02-24T06:29:48;7.10;99.90
4081;DHT22;2055;50.074;8.436;2023-02-24T06:32:14;7.10;99.90
4081;DHT22;2055;50.074;8.436;2023-02-24T06:34:40;7.10;99.90
4081;DHT22;2055;50.074;8.436;2023-02-24T06:37:08;7.10;99.90
4081;DHT22;2055;50.074;8.436;2023-02-24T06:39:35;7.10;99.90
4081;DHT22;2055;50.074;8.436;2023-02-24T06:42:01;7.10;99.90
4081;DHT22;2055;50.074;8.436;2023-02-24T06:44:30;7.10;99.90
4081;DHT22;2055;50.074;8.436;2023-02-24T06:46:56;7.10;99.90
4081;DHT22;2055;50.074;8.436;2023-02-24T06:49:22;7.10;99.90
4081;DHT22;2055;50.074;8.436;2023-02-24T06:51:48;7.10;99.90
4081;DHT22;2055;50.074;8.436;2023-02-24T06:54:15;7.10;99.90
4081;DHT22;2055;50.074;8.436;2023-02-24T06:56:40;7.10;99.90
4081;DHT22;2055;50.074;8.436;2023-02-24T06:59:06;7.10;99.90
4081;DHT22;2055;50.074;8.436;2023-02-24T07:01:36;7.10;99.90
4081;DHT22;2055;50.074;8.436;2023-02-24T07:04:10;7.10;99.90
4081;DHT22;2055;50.074;8.436;2023-02-24T07:06:37;7.10;99.90
4081;DHT22;2055;50.074;8.436;2023-02-24T07:09:11;7.10;99.90
4081;DHT22;2055;50.074;8.436;2023-02-24T07:11:43;7.20;99.90
4081;DHT22;2055;50.074;8.436;2023-02-24T07:14:11;7.20;99.90
4081;DHT22;2055;50.074;8.436;2023-02-24T07:16:39;7.20;99.90
4081;DHT22;2055;50.074;8.436;2023-02-24T07:19:09;7.30;99.90
4081;DHT22;2055;50.074;8.436;2023-02-24T07:21:39;7.40;99.90
4081;DHT22;2055;50.074;8.436;2023-02-24T07:24:10;7.40;99.90
4081;DHT22;2055;50.074;8.436;2023-02-24T07:26:38;7.40;99.90
4081;DHT22;2055;50.074;8.436;2023-02-24T07:29:08;7.40;99.90
4081;DHT22;2055;50.074;8.436;2023-02-24T07:31:35;7.50;99.90
4081;DHT22;2055;50.074;8.436;2023-02-24T07:34:02;7.50;99.90
4081;DHT22;2055;50.074;8.436;2023-02-24T07:36:28;7.60;99.90
4081;DHT22;2055;50.074;8.436;2023-02-24T07:38:56;7.70;99.90
4081;DHT22;2055;50.074;8.436;2023-02-24T07:41:24;7.70;99.90
4081;DHT22;2055;50.074;8.436;2023-02-24T07:43:52;7.80;99.90
4081;DHT22;2055;50.074;8.436;2023-02-24T07:46:26;7.80;99.90
4081;DHT22;2055;50.074;8.436;2023-02-24T07:48:53;7.80;99.90
4081;DHT22;2055;50.074;8.436;2023-02-24T07:51:22;7.90;99.90
4081;DHT22;2055;50.074;8.436;2023-02-24T07:53:50;7.90;99.90
4081;DHT22;2055;50.074;8.436;2023-02-24T07:56:18;7.90;99.90
4081;DHT22;2055;50.074;8.436;2023-02-24T07:58:46;7.90;99.90
4081;DHT22;2055;50.074;8.436;2023-02-24T08:01:15;7.90;99.90
4081;DHT22;2055;50.074;8.436;2023-02-24T08:03:56;8.00;99.90
4081;DHT22;2055;50.074;8.436;2023-02-24T08:06:29;8.20;99.90
4081;DHT22;2055;50.074;8.436;2023-02-24T08:09:10;8.10;99.90
4081;DHT22;2055;50.074;8.436;2023-02-24T08:11:50;8.00;99.90
4081;DHT22;2055;50.074;8.436;2023-02-24T08:14:21;8.00;99.90
4081;DHT22;2055;50.074;8.436;2023-02-24T08:16:50;8.10;99.90
4081;DHT22;2055;50.074;8.436;2023-02-24T08:19:17;8.10;99.90
4081;DHT22;2055;50.074;8.436;2023-02-24T08:21:48;8.10;99.90
4081;DHT22;2055;50.074;8.436;2023-02-24T08:24:24;8.20;99.90
4081;DHT22;2055;50.074;8.436;2023-02-24T08:26:55;8.30;99.90
4081;DHT22;2055;50.074;8.436;2023-02-24T08:29:34;8.40;99.90
4081;DHT22;2055;50.074;8.436;2023-02-24T08:32:23;8.40;99.90
4081;DHT22;2055;50.074;8.436;2023-02-24T08:34:50;8.60;99.90
4081;DHT22;2055;50.074;8.436;2023-02-24T08:37:21;8.60;99.90
4081;DHT22;2055;50.074;8.436;2023-02-24T08:39:46;8.60;99.90
4081;DHT22;2055;50.074;8.436;2023-02-24T08:42:18;8.50;99.90
4081;DHT22;2055;50.074;8.436;2023-02-24T08:44:44;8.60;99.90
4081;DHT22;2055;50.074;8.436;2023-02-24T08:47:10;8.70;99.90
4081;DHT22;2055;50.074;8.436;2023-02-24T08:49:38;8.60;99.90
4081;DHT22;2055;50.074;8.436;2023-02-24T08:52:04;8.60;99.90
4081;DHT22;2055;50.074;8.436;2023-02-24T08:54:32;8.70;99.90
4081;DHT22;2055;50.074;8.436;2023-02-24T08:56:58;8.60;99.90
4081;DHT22;2055;50.074;8.436;2023-02-24T08:59:33;8.60;99.90
4081;DHT22;2055;50.074;8.436;2023-02-24T09:02:05;8.60;99.90
4081;DHT22;2055;50.074;8.436;2023-02-24T09:04:44;8.70;99.90
4081;DHT22;2055;50.074;8.436;2023-02-24T09:07:40;8.60;99.90
4081;DHT22;2055;50.074;8.436;2023-02-24T09:10:14;8.70;99.90
4081;DHT22;2055;50.074;8.436;2023-02-24T09:12:43;8.90;99.90
4081;DHT22;2055;50.074;8.436;2023-02-24T09:15:10;9.00;99.90
4081;DHT22;2055;50.074;8.436;2023-02-24T09:17:36;9.20;99.90
4081;DHT22;2055;50.074;8.436;2023-02-24T09:20:07;9.30;99.90
4081;DHT22;2055;50.074;8.436;2023-02-24T09:22:56;9.40;99.90
4081;DHT22;2055;50.074;8.436;2023-02-24T09:25:29;9.60;99.90
4081;DHT22;2055;50.074;8.436;2023-02-24T09:28:05;9.60;99.90
4081;DHT22;2055;50.074;8.436;2023-02-24T09:30:38;9.60;99.90
4081;DHT22;2055;50.074;8.436;2023-02-24T09:35:57;9.50;99.90
4081;DHT22;2055;50.074;8.436;2023-02-24T09:41:31;9.20;99.90
4081;DHT22;2055;50.074;8.436;2023-02-24T09:44:13;9.10;99.90
4081;DHT22;2055;50.074;8.436;2023-02-24T09:46:48;9.20;99.90
4081;DHT22;2055;50.074;8.436;2023-02-24T09:49:21;9.20;99.90
4081;DHT22;2055;50.074;8.436;2023-02-24T09:51:49;9.20;99.90
4081;DHT22;2055;50.074;8.436;2023-02-24T09:54:29;9.20;99.90
4081;DHT22;2055;50.074;8.436;2023-02-24T09:57:02;9.40;99.90
4081;DHT22;2055;50.074;8.436;2023-02-24T09:59:47;9.40;99.90
4081;DHT22;2055;50.074;8.436;2023-02-24T10:02:41;9.50;99.90
4081;DHT22;2055;50.074;8.436;2023-02-24T10:05:27;9.50;99.90
4081;DHT22;2055;50.074;8.436;2023-02-24T10:08:13;9.50;99.90
4081;DHT22;2055;50.074;8.436;2023-02-24T10:10:42;9.80;99.90
4081;DHT22;2055;50.074;8.436;2023-02-24T10:13:26;9.90;99.90
4081;DHT22;2055;50.074;8.436;2023-02-24T10:15:58;9.90;99.90
4081;DHT22;2055;50.074;8.436;2023-02-24T10:18:52;9.90;99.90
4081;DHT22;2055;50.074;8.436;2023-02-24T10:24:38;9.70;99.90
4081;DHT22;2055;50.074;8.436;2023-02-24T10:27:14;9.70;99.90
4081;DHT22;2055;50.074;8.436;2023-02-24T10:30:09;9.80;99.90
4081;DHT22;2055;50.074;8.436;2023-02-24T10:32:51;10.20;99.90
4081;DHT22;2055;50.074;8.436;2023-02-24T10:35:20;10.70;99.90
4081;DHT22;2055;50.074;8.436;2023-02-24T10:37:46;12.70;99.90
4081;DHT22;2055;50.074;8.436;2023-02-24T10:40:14;12.80;99.90
4081;DHT22;2055;50.074;8.436;2023-02-24T10:42:51;12.50;99.90
4081;DHT22;2055;50.074;8.436;2023-02-24T10:45:29;12.30;99.90
4081;DHT22;2055;50.074;8.436;2023-02-24T10:47:58;11.40;99.90
4081;DHT22;2055;50.074;8.436;2023-02-24T10:50:41;12.20;99.90
4081;DHT22;2055;50.074;8.436;2023-02-24T10:53:13;11.60;99.90
4081;DHT22;2055;50.074;8.436;2023-02-24T10:55:53;11.50;99.90
4081;DHT22;2055;50.074;8.436;2023-02-24T10:58:39;11.40;99.90
4081;DHT22;2055;50.074;8.436;2023-02-24T11:01:19;11.90;99.90
4081;DHT22;2055;50.074;8.436;2023-02-24T11:04:11;12.00;99.90
4081;DHT22;2055;50.074;8.436;2023-02-24T11:06:47;13.10;99.90
4081;DHT22;2055;50.074;8.436;2023-02-24T11:09:24;14.10;99.90
4081;DHT22;2055;50.074;8.436;2023-02-24T11:11:58;14.50;99.90
4081;DHT22;2055;50.074;8.436;2023-02-24T11:14:49;12.60;99.90
4081;DHT22;2055;50.074;8.436;2023-02-24T11:17:35;11.70;99.90
4081;DHT22;2055;50.074;8.436;2023-02-24T11:20:06;11.50;99.90
4081;DHT22;2055;50.074;8.436;2023-02-24T11:22:41;12.00;99.90
4081;DHT22;2055;50.074;8.436;2023-02-24T11:25:20;12.80;99.90
4081;DHT22;2055;50.074;8.436;2023-02-24T11:27:47;14.20;99.90
4081;DHT22;2055;50.074;8.436;2023-02-24T11:36:06;12.60;99.90
4081;DHT22;2055;50.074;8.436;2023-02-24T11:39:07;12.00;99.90
4081;DHT22;2055;50.074;8.436;2023-02-24T11:41:48;11.90;99.90
4081;DHT22;2055;50.074;8.436;2023-02-24T11:44:24;11.90;99.90
4081;DHT22;2055;50.074;8.436;2023-02-24T11:46:55;12.60;99.90
4081;DHT22;2055;50.074;8.436;2023-02-24T11:49:44;12.80;99.90
4081;DHT22;2055;50.074;8.436;2023-02-24T11:52:17;12.30;99.90
4081;DHT22;2055;50.074;8.436;2023-02-24T11:54:47;11.30;99.90
4081;DHT22;2055;50.074;8.436;2023-02-24T11:57:21;10.50;99.90
4081;DHT22;2055;50.074;8.436;2023-02-24T12:00:13;10.70;99.90
4081;DHT22;2055;50.074;8.436;2023-02-24T12:03:22;10.70;99.90
4081;DHT22;2055;50.074;8.436;2023-02-24T12:05:40;11.10;99.90
4081;DHT22;2055;50.074;8.436;2023-02-24T12:08:23;11.00;99.90
4081;DHT22;2055;50.074;8.436;2023-02-24T12:11:13;12.10;99.90
4081;DHT22;2055;50.074;8.436;2023-02-24T12:13:47;12.20;99.90
4081;DHT22;2055;50.074;8.436;2023-02-24T12:16:20;11.60;99.90
4081;DHT22;2055;50.074;8.436;2023-02-24T12:19:01;11.00;99.90
4081;DHT22;2055;50.074;8.436;2023-02-24T12:21:52;10.90;99.90
4081;DHT22;2055;50.074;8.436;2023-02-24T12:24:20;10.60;99.90
4081;DHT22;2055;50.074;8.436;2023-02-24T12:27:16;10.70;99.90
4081;DHT22;2055;50.074;8.436;2023-02-24T12:35:49;10.70;99.90
4081;DHT22;2055;50.074;8.436;2023-02-24T12:38:34;10.60;99.90
4081;DHT22;2055;50.074;8.436;2023-02-24T12:44:30;10.70;99.90
4081;DHT22;2055;50.074;8.436;2023-02-24T12:47:10;10.60;99.90
4081;DHT22;2055;50.074;8.436;2023-02-24T12:50:02;10.70;99.90
4081;DHT22;2055;50.074;8.436;2023-02-24T12:52:44;10.70;99.90
4081;DHT22;2055;50.074;8.436;2023-02-24T12:55:30;10.60;99.90
4081;DHT22;2055;50.074;8.436;2023-02-24T12:58:09;10.50;99.90
4081;DHT22;2055;50.074;8.436;2023-02-24T13:00:58;10.60;99.90
4081;DHT22;2055;50.074;8.436;2023-02-24T13:03:37;10.40;99.90
4081;DHT22;2055;50.074;8.436;2023-02-24T13:09:14;10.40;99.90
4081;DHT22;2055;50.074;8.436;2023-02-24T13:14:28;10.30;99.90
4081;DHT22;2055;50.074;8.436;2023-02-24T13:19:33;10.20;99.90
4081;DHT22;2055;50.074;8.436;2023-02-24T13:22:27;10.20;99.90
4081;DHT22;2055;50.074;8.436;2023-02-24T13:27:22;10.00;99.90
4081;DHT22;2055;50.074;8.436;2023-02-24T13:29:50;10.10;99.90
4081;DHT22;2055;50.074;8.436;2023-02-24T13:32:27;10.10;99.90
4081;DHT22;2055;50.074;8.436;2023-02-24T13:34:55;10.10;99.90
4081;DHT22;2055;50.074;8.436;2023-02-24T13:39:59;10.00;99.90
4081;DHT22;2055;50.074;8.436;2023-02-24T13:42:27;10.00;99.90
4081;DHT22;2055;50.074;8.436;2023-02-24T13:45:16;9.80;99.90
4081;DHT22;2055;50.074;8.436;2023-02-24T13:53:36;9.90;99.90
4081;DHT22;2055;50.074;8.436;2023-02-24T14:01:13;9.60;99.90
4081;DHT22;2055;50.074;8.436;2023-02-24T14:03:41;9.10;99.90
4081;DHT22;2055;50.074;8.436;2023-02-24T14:06:21;9.50;99.90
4081;DHT22;2055;50.074;8.436;2023-02-24T14:08:53;9.60;99.90
4081;DHT22;2055;50.074;8.436;2023-02-24T14:11:22;9.50;99.90
4081;DHT22;2055;50.074;8.436;2023-02-24T14:13:52;9.60;99.90
4081;DHT22;2055;50.074;8.436;2023-02-24T14:16:21;9.60;99.90
4081;DHT22;2055;50.074;8.436;2023-02-24T14:18:59;9.50;99.90
4081;DHT22;2055;50.074;8.436;2023-02-24T14:21:28;9.40;99.90
4081;DHT22;2055;50.074;8.436;2023-02-24T14:24:10;9.40;99.90
4081;DHT22;2055;50.074;8.436;2023-02-24T14:26:48;9.30;99.90
4081;DHT22;2055;50.074;8.436;2023-02-24T14:29:20;9.30;99.90
4081;DHT22;2055;50.074;8.436;2023-02-24T14:31:54;9.30;99.90
4081;DHT22;2055;50.074;8.436;2023-02-24T14:34:22;9.40;99.90
4081;DHT22;2055;50.074;8.436;2023-02-24T14:36:50;9.40;99.90
4081;DHT22;2055;50.074;8.436;2023-02-24T14:39:21;9.30;99.90
4081;DHT22;2055;50.074;8.436;2023-02-24T14:41:47;9.30;99.90
4081;DHT22;2055;50.074;8.436;2023-02-24T14:44:25;9.30;99.90
4081;DHT22;2055;50.074;8.436;2023-02-24T14:46:54;9.40;99.90
4081;DHT22;2055;50.074;8.436;2023-02-24T14:49:31;9.40;99.90
4081;DHT22;2055;50.074;8.436;2023-02-24T14:57:03;9.20;99.90
4081;DHT22;2055;50.074;8.436;2023-02-24T14:59:34;9.30;99.90
4081;DHT22;2055;50.074;8.436;2023-02-24T15:02:04;9.20;99.90
4081;DHT22;2055;50.074;8.436;2023-02-24T15:04:37;9.30;99.90
4081;DHT22;2055;50.074;8.436;2023-02-24T15:07:24;9.10;99.90
4081;DHT22;2055;50.074;8.436;2023-02-24T15:09:51;9.00;99.90
4081;DHT22;2055;50.074;8.436;2023-02-24T15:12:45;9.00;99.90
4081;DHT22;2055;50.074;8.436;2023-02-24T15:15:33;8.90;99.90
4081;DHT22;2055;50.074;8.436;2023-02-24T15:18:11;8.90;99.90
4081;DHT22;2055;50.074;8.436;2023-02-24T15:20:40;8.90;99.90
4081;DHT22;2055;50.074;8.436;2023-02-24T15:23:25;8.80;99.90
4081;DHT22;2055;50.074;8.436;2023-02-24T15:25:51;8.80;99.90
4081;DHT22;2055;50.074;8.436;2023-02-24T15:28:25;8.80;99.90
4081;DHT22;2055;50.074;8.436;2023-02-24T15:30:58;8.80;99.90
4081;DHT22;2055;50.074;8.436;2023-02-24T15:33:25;8.70;99.90
4081;DHT22;2055;50.074;8.436;2023-02-24T15:35:55;8.70;99.90
4081;DHT22;2055;50.074;8.436;2023-02-24T15:38:34;8.70;99.90
4081;DHT22;2055;50.074;8.436;2023-02-24T15:41:02;8.60;99.90
4081;DHT22;2055;50.074;8.436;2023-02-24T15:48:48;8.60;99.90
4081;DHT22;2055;50.074;8.436;2023-02-24T15:51:29;8.50;99.90
4081;DHT22;2055;50.074;8.436;2023-02-24T15:53:56;8.50;99.90
4081;DHT22;2055;50.074;8.436;2023-02-24T15:56:21;8.50;99.90
4081;DHT22;2055;50.074;8.436;2023-02-24T15:58:47;8.50;99.90
4081;DHT22;2055;50.074;8.436;2023-02-24T16:01:13;8.50;99.90
4081;DHT22;2055;50.074;8.436;2023-02-24T16:03:38;8.40;99.90
4081;DHT22;2055;50.074;8.436;2023-02-24T16:06:05;8.40;99.90
4081;DHT22;2055;50.074;8.436;2023-02-24T16:08:31;8.60;99.90
4081;DHT22;2055;50.074;8.436;2023-02-24T16:10:57;8.40;99.90
4081;DHT22;2055;50.074;8.436;2023-02-24T16:13:25;8.30;99.90
4081;DHT22;2055;50.074;8.436;2023-02-24T16:15:51;8.30;99.90
4081;DHT22;2055;50.074;8.436;2023-02-24T16:18:22;8.30;99.90
4081;DHT22;2055;50.074;8.436;2023-02-24T16:20:49;8.20;99.90
4081;DHT22;2055;50.074;8.436;2023-02-24T16:23:22;8.20;99.90
4081;DHT22;2055;50.074;8.436;2023-02-24T16:25:50;8.10;99.90
4081;DHT22;2055;50.074;8.436;2023-02-24T16:28:19;8.00;99.90
4081;DHT22;2055;50.074;8.436;2023-02-24T16:30:48;7.90;99.90
4081;DHT22;2055;50.074;8.436;2023-02-24T16:33:14;7.70;99.90
4081;DHT22;2055;50.074;8.436;2023-02-24T16:35:44;7.60;99.90
4081;DHT22;2055;50.074;8.436;2023-02-24T16:38:14;7.50;99.90
4081;DHT22;2055;50.074;8.436;2023-02-24T16:40:42;7.30;99.90
4081;DHT22;2055;50.074;8.436;2023-02-24T16:43:08;7.20;99.90
4081;DHT22;2055;50.074;8.436;2023-02-24T16:45:33;7.00;99.90
4081;DHT22;2055;50.074;8.436;2023-02-24T16:48:05;6.90;99.90
4081;DHT22;2055;50.074;8.436;2023-02-24T16:50:35;6.80;99.90
4081;DHT22;2055;50.074;8.436;2023-02-24T16:53:01;6.70;99.90
4081;DHT22;2055;50.074;8.436;2023-02-24T16:55:27;6.60;99.90
4081;DHT22;2055;50.074;8.436;2023-02-24T16:57:52;6.50;99.90
4081;DHT22;2055;50.074;8.436;2023-02-24T17:00:18;6.40;99.90
4081;DHT22;2055;50.074;8.436;2023-02-24T17:02:48;6.30;99.90
4081;DHT22;2055;50.074;8.436;2023-02-24T17:05:22;6.30;99.90
4081;DHT22;2055;50.074;8.436;2023-02-24T17:07:50;6.20;99.90
4081;DHT22;2055;50.074;8.436;2023-02-24T17:10:17;6.10;99.90
4081;DHT22;2055;50.074;8.436;2023-02-24T17:12:44;6.20;99.90
4081;DHT22;2055;50.074;8.436;2023-02-24T17:15:21;6.10;99.90
4081;DHT22;2055;50.074;8.436;2023-02-24T17:17:47;6.00;99.90
4081;DHT22;2055;50.074;8.436;2023-02-24T17:20:15;6.10;99.90
4081;DHT22;2055;50.074;8.436;2023-02-24T17:22:42;6.00;99.90
4081;DHT22;2055;50.074;8.436;2023-02-24T17:25:16;5.90;99.90
4081;DHT22;2055;50.074;8.436;2023-02-24T17:27:42;5.90;99.90
4081;DHT22;2055;50.074;8.436;2023-02-24T17:30:13;5.90;99.90
4081;DHT22;2055;50.074;8.436;2023-02-24T17:32:39;5.80;99.90
4081;DHT22;2055;50.074;8.436;2023-02-24T17:35:05;5.80;99.90
4081;DHT22;2055;50.074;8.436;2023-02-24T17:37:31;5.70;99.90
4081;DHT22;2055;50.074;8.436;2023-02-24T17:39:57;5.70;99.90
4081;DHT22;2055;50.074;8.436;2023-02-24T17:42:22;5.70;99.90
4081;DHT22;2055;50.074;8.436;2023-02-24T17:44:48;5.70;99.90
4081;DHT22;2055;50.074;8.436;2023-02-24T17:47:14;5.60;99.90
4081;DHT22;2055;50.074;8.436;2023-02-24T17:49:39;5.60;99.90
4081;DHT22;2055;50.074;8.436;2023-02-24T17:52:05;5.60;99.90
4081;DHT22;2055;50.074;8.436;2023-02-24T17:54:30;5.50;99.90
4081;DHT22;2055;50.074;8.436;2023-02-24T17:56:56;5.50;99.90
4081;DHT22;2055;50.074;8.436;2023-02-24T17:59:21;5.60;99.90
4081;DHT22;2055;50.074;8.436;2023-02-24T18:01:47;5.50;99.90
4081;DHT22;2055;50.074;8.436;2023-02-24T18:04:12;5.50;99.90
4081;DHT22;2055;50.074;8.436;2023-02-24T18:06:41;5.40;99.90
4081;DHT22;2055;50.074;8.436;2023-02-24T18:09:07;5.40;99.90
4081;DHT22;2055;50.074;8.436;2023-02-24T18:11:33;5.40;99.90
4081;DHT22;2055;50.074;8.436;2023-02-24T18:13:59;5.40;99.90
4081;DHT22;2055;50.074;8.436;2023-02-24T18:16:25;5.40;99.90
4081;DHT22;2055;50.074;8.436;2023-02-24T18:18:51;5.40;99.90
4081;DHT22;2055;50.074;8.436;2023-02-24T18:21:16;5.30;99.90